sensor_id;sensor_type;location;lat;lon;timestamp;P1;durP1;ratioP1;P2;durP2;ratioP2
74851;SDS011;63400;50.650;6.832;2022-10-31T00:00:57;5.43;;;1.77;;
74851;SDS011;63400;50.650;6.832;2022-10-31T00:03:23;8.23;;;2.38;;
74851;SDS011;63400;50.650;6.832;2022-10-31T00:05:49;5.75;;;2.25;;
74851;SDS011;63400;50.650;6.832;2022-10-31T00:08:15;7.25;;;2.10;;
74851;SDS011;63400;50.650;6.832;2022-10-31T00:10:41;7.22;;;2.42;;
74851;SDS011;63400;50.650;6.832;2022-10-31T00:13:08;9.30;;;2.45;;
74851;SDS011;63400;50.650;6.832;2022-10-31T00:15:38;6.20;;;1.73;;
74851;SDS011;63400;50.650;6.832;2022-10-31T00:18:04;5.30;;;1.60;;
74851;SDS011;63400;50.650;6.832;2022-10-31T00:20:31;4.25;;;1.80;;
74851;SDS011;63400;50.650;6.832;2022-10-31T00:23:00;5.70;;;1.85;;
74851;SDS011;63400;50.650;6.832;2022-10-31T00:25:26;5.10;;;1.90;;
74851;SDS011;63400;50.650;6.832;2022-10-31T00:27:52;6.15;;;1.92;;
74851;SDS011;63400;50.650;6.832;2022-10-31T00:30:18;4.75;;;1.83;;
74851;SDS011;63400;50.650;6.832;2022-10-31T00:32:43;8.35;;;1.90;;
74851;SDS011;63400;50.650;6.832;2022-10-31T00:35:09;6.13;;;1.88;;
74851;SDS011;63400;50.650;6.832;2022-10-31T00:37:34;5.07;;;1.95;;
74851;SDS011;63400;50.650;6.832;2022-10-31T00:40:00;7.18;;;1.80;;
74851;SDS011;63400;50.650;6.832;2022-10-31T00:42:29;5.03;;;1.80;;
74851;SDS011;63400;50.650;6.832;2022-10-31T00:44:54;5.05;;;1.27;;
74851;SDS011;63400;50.650;6.832;2022-10-31T00:47:20;8.95;;;2.15;;
74851;SDS011;63400;50.650;6.832;2022-10-31T00:49:45;5.03;;;1.83;;
74851;SDS011;63400;50.650;6.832;2022-10-31T00:52:11;5.38;;;2.08;;
74851;SDS011;63400;50.650;6.832;2022-10-31T00:54:36;7.13;;;1.90;;
74851;SDS011;63400;50.650;6.832;2022-10-31T00:57:02;6.00;;;1.70;;
74851;SDS011;63400;50.650;6.832;2022-10-31T00:59:27;3.92;;;1.77;;
74851;SDS011;63400;50.650;6.832;2022-10-31T01:01:53;5.10;;;1.65;;
74851;SDS011;63400;50.650;6.832;2022-10-31T01:04:18;10.85;;;3.30;;
74851;SDS011;63400;50.650;6.832;2022-10-31T01:06:44;8.50;;;2.40;;
74851;SDS011;63400;50.650;6.832;2022-10-31T01:09:09;6.38;;;2.40;;
74851;SDS011;63400;50.650;6.832;2022-10-31T01:11:35;8.88;;;2.22;;
74851;SDS011;63400;50.650;6.832;2022-10-31T01:14:00;9.85;;;3.72;;
74851;SDS011;63400;50.650;6.832;2022-10-31T01:16:26;8.48;;;2.60;;
74851;SDS011;63400;50.650;6.832;2022-10-31T01:18:52;7.20;;;2.33;;
74851;SDS011;63400;50.650;6.832;2022-10-31T01:21:19;6.85;;;2.47;;
74851;SDS011;63400;50.650;6.832;2022-10-31T01:23:46;6.30;;;1.70;;
74851;SDS011;63400;50.650;6.832;2022-10-31T01:26:16;3.85;;;1.58;;
74851;SDS011;63400;50.650;6.832;2022-10-31T01:28:55;6.82;;;1.90;;
74851;SDS011;63400;50.650;6.832;2022-10-31T01:31:23;7.15;;;2.08;;
74851;SDS011;63400;50.650;6.832;2022-10-31T01:33:50;7.43;;;1.73;;
74851;SDS011;63400;50.650;6.832;2022-10-31T01:36:18;8.25;;;1.80;;
74851;SDS011;63400;50.650;6.832;2022-10-31T01:39:04;4.93;;;1.88;;
74851;SDS011;63400;50.650;6.832;2022-10-31T01:41:32;6.28;;;1.85;;
74851;SDS011;63400;50.650;6.832;2022-10-31T01:46:38;5.80;;;2.25;;
74851;SDS011;63400;50.650;6.832;2022-10-31T01:49:11;5.60;;;1.65;;
74851;SDS011;63400;50.650;6.832;2022-10-31T01:51:48;7.95;;;2.47;;
74851;SDS011;63400;50.650;6.832;2022-10-31T01:54:20;5.85;;;1.85;;
74851;SDS011;63400;50.650;6.832;2022-10-31T01:56:48;4.70;;;2.03;;
74851;SDS011;63400;50.650;6.832;2022-10-31T01:59:16;7.55;;;2.20;;
74851;SDS011;63400;50.650;6.832;2022-10-31T02:01:43;6.32;;;1.63;;
74851;SDS011;63400;50.650;6.832;2022-10-31T02:04:08;3.60;;;1.60;;
74851;SDS011;63400;50.650;6.832;2022-10-31T02:09:07;7.55;;;2.17;;
74851;SDS011;63400;50.650;6.832;2022-10-31T02:11:34;4.72;;;1.77;;
74851;SDS011;63400;50.650;6.832;2022-10-31T02:14:00;8.23;;;1.85;;
74851;SDS011;63400;50.650;6.832;2022-10-31T02:16:26;4.25;;;1.80;;
74851;SDS011;63400;50.650;6.832;2022-10-31T02:18:52;4.65;;;1.63;;
74851;SDS011;63400;50.650;6.832;2022-10-31T02:21:31;8.40;;;1.95;;
74851;SDS011;63400;50.650;6.832;2022-10-31T02:30:23;6.65;;;1.30;;
74851;SDS011;63400;50.650;6.832;2022-10-31T02:32:52;4.07;;;1.33;;
74851;SDS011;63400;50.650;6.832;2022-10-31T02:46:34;5.65;;;1.35;;
74851;SDS011;63400;50.650;6.832;2022-10-31T02:49:09;3.13;;;1.25;;
74851;SDS011;63400;50.650;6.832;2022-10-31T02:51:40;4.68;;;1.10;;
74851;SDS011;63400;50.650;6.832;2022-10-31T02:54:15;6.05;;;1.40;;
74851;SDS011;63400;50.650;6.832;2022-10-31T02:56:46;5.45;;;1.70;;
74851;SDS011;63400;50.650;6.832;2022-10-31T02:59:13;5.53;;;1.45;;
74851;SDS011;63400;50.650;6.832;2022-10-31T03:01:49;8.05;;;2.10;;
74851;SDS011;63400;50.650;6.832;2022-10-31T03:15:48;10.07;;;2.03;;
74851;SDS011;63400;50.650;6.832;2022-10-31T03:18:17;8.00;;;1.77;;
74851;SDS011;63400;50.650;6.832;2022-10-31T03:20:50;6.85;;;1.75;;
74851;SDS011;63400;50.650;6.832;2022-10-31T03:23:19;9.30;;;1.77;;
74851;SDS011;63400;50.650;6.832;2022-10-31T03:25:47;4.18;;;1.63;;
74851;SDS011;63400;50.650;6.832;2022-10-31T03:28:13;5.28;;;1.63;;
74851;SDS011;63400;50.650;6.832;2022-10-31T03:30:41;8.20;;;1.70;;
74851;SDS011;63400;50.650;6.832;2022-10-31T03:35:35;5.38;;;1.45;;
74851;SDS011;63400;50.650;6.832;2022-10-31T03:38:01;4.28;;;1.48;;
74851;SDS011;63400;50.650;6.832;2022-10-31T03:40:28;4.63;;;1.77;;
74851;SDS011;63400;50.650;6.832;2022-10-31T03:42:56;8.85;;;1.70;;
74851;SDS011;63400;50.650;6.832;2022-10-31T03:45:24;5.63;;;1.50;;
74851;SDS011;63400;50.650;6.832;2022-10-31T03:47:52;6.10;;;1.92;;
74851;SDS011;63400;50.650;6.832;2022-10-31T03:50:18;9.02;;;2.88;;
74851;SDS011;63400;50.650;6.832;2022-10-31T03:52:46;4.75;;;1.60;;
74851;SDS011;63400;50.650;6.832;2022-10-31T03:55:16;6.15;;;1.67;;
74851;SDS011;63400;50.650;6.832;2022-10-31T04:00:28;5.97;;;2.10;;
74851;SDS011;63400;50.650;6.832;2022-10-31T04:02:57;4.75;;;1.48;;
74851;SDS011;63400;50.650;6.832;2022-10-31T04:07:54;5.63;;;1.95;;
74851;SDS011;63400;50.650;6.832;2022-10-31T04:10:21;6.53;;;2.17;;
74851;SDS011;63400;50.650;6.832;2022-10-31T04:12:49;6.10;;;1.48;;
74851;SDS011;63400;50.650;6.832;2022-10-31T04:15:19;4.15;;;1.58;;
74851;SDS011;63400;50.650;6.832;2022-10-31T04:17:45;4.00;;;1.40;;
74851;SDS011;63400;50.650;6.832;2022-10-31T04:20:15;7.65;;;1.67;;
74851;SDS011;63400;50.650;6.832;2022-10-31T04:22:41;6.10;;;1.60;;
74851;SDS011;63400;50.650;6.832;2022-10-31T04:25:07;7.75;;;2.20;;
74851;SDS011;63400;50.650;6.832;2022-10-31T04:27:32;4.07;;;2.10;;
74851;SDS011;63400;50.650;6.832;2022-10-31T04:29:58;5.20;;;2.05;;
74851;SDS011;63400;50.650;6.832;2022-10-31T04:32:24;6.70;;;1.80;;
74851;SDS011;63400;50.650;6.832;2022-10-31T04:34:50;8.25;;;2.00;;
74851;SDS011;63400;50.650;6.832;2022-10-31T04:37:15;5.20;;;2.17;;
74851;SDS011;63400;50.650;6.832;2022-10-31T04:39:41;6.10;;;1.85;;
74851;SDS011;63400;50.650;6.832;2022-10-31T04:42:06;5.35;;;1.83;;
74851;SDS011;63400;50.650;6.832;2022-10-31T04:44:32;6.05;;;2.38;;
74851;SDS011;63400;50.650;6.832;2022-10-31T04:46:57;6.72;;;1.83;;
74851;SDS011;63400;50.650;6.832;2022-10-31T04:49:22;7.65;;;2.20;;
74851;SDS011;63400;50.650;6.832;2022-10-31T04:51:48;7.47;;;1.58;;
74851;SDS011;63400;50.650;6.832;2022-10-31T04:54:13;6.57;;;1.80;;
74851;SDS011;63400;50.650;6.832;2022-10-31T04:56:39;7.30;;;2.53;;
74851;SDS011;63400;50.650;6.832;2022-10-31T04:59:04;8.07;;;1.60;;
74851;SDS011;63400;50.650;6.832;2022-10-31T05:01:30;7.13;;;1.80;;
74851;SDS011;63400;50.650;6.832;2022-10-31T05:03:55;4.97;;;1.50;;
74851;SDS011;63400;50.650;6.832;2022-10-31T05:06:21;5.32;;;1.42;;
74851;SDS011;63400;50.650;6.832;2022-10-31T05:08:46;5.93;;;2.03;;
74851;SDS011;63400;50.650;6.832;2022-10-31T05:11:12;3.45;;;1.70;;
74851;SDS011;63400;50.650;6.832;2022-10-31T05:13:38;4.80;;;1.77;;
74851;SDS011;63400;50.650;6.832;2022-10-31T05:16:03;7.78;;;2.00;;
74851;SDS011;63400;50.650;6.832;2022-10-31T05:18:29;6.25;;;2.13;;
74851;SDS011;63400;50.650;6.832;2022-10-31T05:20:54;5.55;;;1.92;;
74851;SDS011;63400;50.650;6.832;2022-10-31T05:23:20;7.45;;;2.35;;
74851;SDS011;63400;50.650;6.832;2022-10-31T05:25:45;4.97;;;2.05;;
74851;SDS011;63400;50.650;6.832;2022-10-31T05:28:11;8.88;;;2.17;;
74851;SDS011;63400;50.650;6.832;2022-10-31T05:30:36;12.55;;;3.08;;
74851;SDS011;63400;50.650;6.832;2022-10-31T05:33:02;5.03;;;2.08;;
74851;SDS011;63400;50.650;6.832;2022-10-31T05:35:28;8.23;;;2.28;;
74851;SDS011;63400;50.650;6.832;2022-10-31T05:37:55;5.45;;;1.67;;
74851;SDS011;63400;50.650;6.832;2022-10-31T05:40:23;3.28;;;1.60;;
74851;SDS011;63400;50.650;6.832;2022-10-31T05:42:52;4.30;;;1.73;;
74851;SDS011;63400;50.650;6.832;2022-10-31T05:45:19;5.90;;;3.13;;
74851;SDS011;63400;50.650;6.832;2022-10-31T05:47:57;8.95;;;3.05;;
74851;SDS011;63400;50.650;6.832;2022-10-31T05:50:24;6.28;;;2.72;;
74851;SDS011;63400;50.650;6.832;2022-10-31T05:52:55;7.07;;;2.72;;
74851;SDS011;63400;50.650;6.832;2022-10-31T05:55:20;9.45;;;2.42;;
74851;SDS011;63400;50.650;6.832;2022-10-31T05:57:46;7.18;;;1.95;;
74851;SDS011;63400;50.650;6.832;2022-10-31T06:00:12;8.32;;;2.15;;
74851;SDS011;63400;50.650;6.832;2022-10-31T06:02:37;5.70;;;1.80;;
74851;SDS011;63400;50.650;6.832;2022-10-31T06:05:03;5.35;;;2.70;;
74851;SDS011;63400;50.650;6.832;2022-10-31T06:07:32;9.65;;;2.03;;
74851;SDS011;63400;50.650;6.832;2022-10-31T06:09:59;4.38;;;2.05;;
74851;SDS011;63400;50.650;6.832;2022-10-31T06:12:25;8.18;;;2.10;;
74851;SDS011;63400;50.650;6.832;2022-10-31T06:14:50;6.10;;;1.88;;
74851;SDS011;63400;50.650;6.832;2022-10-31T06:17:16;7.65;;;2.35;;
74851;SDS011;63400;50.650;6.832;2022-10-31T06:19:41;7.20;;;2.10;;
74851;SDS011;63400;50.650;6.832;2022-10-31T06:22:07;6.22;;;2.10;;
74851;SDS011;63400;50.650;6.832;2022-10-31T06:24:32;6.20;;;1.92;;
74851;SDS011;63400;50.650;6.832;2022-10-31T06:26:58;3.97;;;1.92;;
74851;SDS011;63400;50.650;6.832;2022-10-31T06:29:23;5.93;;;1.80;;
74851;SDS011;63400;50.650;6.832;2022-10-31T06:31:50;7.30;;;2.85;;
74851;SDS011;63400;50.650;6.832;2022-10-31T06:34:16;8.55;;;2.00;;
74851;SDS011;63400;50.650;6.832;2022-10-31T06:36:42;10.90;;;3.60;;
74851;SDS011;63400;50.650;6.832;2022-10-31T06:39:07;12.38;;;4.82;;
74851;SDS011;63400;50.650;6.832;2022-10-31T06:41:33;9.02;;;3.10;;
74851;SDS011;63400;50.650;6.832;2022-10-31T06:43:58;7.30;;;2.30;;
74851;SDS011;63400;50.650;6.832;2022-10-31T06:46:24;5.82;;;2.17;;
74851;SDS011;63400;50.650;6.832;2022-10-31T06:48:49;6.80;;;3.00;;
74851;SDS011;63400;50.650;6.832;2022-10-31T06:51:14;10.55;;;2.50;;
74851;SDS011;63400;50.650;6.832;2022-10-31T06:53:40;9.02;;;2.63;;
74851;SDS011;63400;50.650;6.832;2022-10-31T06:56:06;6.75;;;2.10;;
74851;SDS011;63400;50.650;6.832;2022-10-31T06:58:31;14.40;;;2.65;;
74851;SDS011;63400;50.650;6.832;2022-10-31T07:01:00;13.50;;;3.38;;
74851;SDS011;63400;50.650;6.832;2022-10-31T07:03:25;9.90;;;2.15;;
74851;SDS011;63400;50.650;6.832;2022-10-31T07:05:51;13.95;;;2.60;;
74851;SDS011;63400;50.650;6.832;2022-10-31T07:08:20;11.85;;;2.25;;
74851;SDS011;63400;50.650;6.832;2022-10-31T07:10:50;10.10;;;3.47;;
74851;SDS011;63400;50.650;6.832;2022-10-31T07:15:49;16.33;;;3.40;;
74851;SDS011;63400;50.650;6.832;2022-10-31T07:18:15;11.10;;;2.55;;
74851;SDS011;63400;50.650;6.832;2022-10-31T07:20:40;9.70;;;2.63;;
74851;SDS011;63400;50.650;6.832;2022-10-31T07:23:07;8.68;;;3.05;;
74851;SDS011;63400;50.650;6.832;2022-10-31T07:25:33;14.27;;;3.72;;
74851;SDS011;63400;50.650;6.832;2022-10-31T07:27:59;13.15;;;3.58;;
74851;SDS011;63400;50.650;6.832;2022-10-31T07:30:24;6.85;;;2.70;;
74851;SDS011;63400;50.650;6.832;2022-10-31T07:32:50;7.55;;;2.60;;
74851;SDS011;63400;50.650;6.832;2022-10-31T07:35:19;9.70;;;3.15;;
74851;SDS011;63400;50.650;6.832;2022-10-31T07:37:50;9.65;;;3.20;;
74851;SDS011;63400;50.650;6.832;2022-10-31T07:40:16;8.68;;;3.20;;
74851;SDS011;63400;50.650;6.832;2022-10-31T07:42:42;8.93;;;2.67;;
74851;SDS011;63400;50.650;6.832;2022-10-31T07:45:09;10.07;;;3.13;;
74851;SDS011;63400;50.650;6.832;2022-10-31T07:47:40;10.23;;;3.72;;
74851;SDS011;63400;50.650;6.832;2022-10-31T07:50:10;11.43;;;3.35;;
74851;SDS011;63400;50.650;6.832;2022-10-31T07:55:02;10.23;;;4.72;;
74851;SDS011;63400;50.650;6.832;2022-10-31T07:57:28;9.02;;;3.65;;
74851;SDS011;63400;50.650;6.832;2022-10-31T07:59:53;11.38;;;3.55;;
74851;SDS011;63400;50.650;6.832;2022-10-31T08:02:19;15.35;;;4.82;;
74851;SDS011;63400;50.650;6.832;2022-10-31T08:04:44;14.32;;;3.40;;
74851;SDS011;63400;50.650;6.832;2022-10-31T08:07:10;11.45;;;3.80;;
74851;SDS011;63400;50.650;6.832;2022-10-31T08:09:35;11.80;;;3.33;;
74851;SDS011;63400;50.650;6.832;2022-10-31T08:12:01;13.55;;;3.90;;
74851;SDS011;63400;50.650;6.832;2022-10-31T08:14:26;12.60;;;3.47;;
74851;SDS011;63400;50.650;6.832;2022-10-31T08:16:52;13.02;;;4.18;;
74851;SDS011;63400;50.650;6.832;2022-10-31T08:19:18;8.45;;;3.20;;
74851;SDS011;63400;50.650;6.832;2022-10-31T08:21:44;11.40;;;4.22;;
74851;SDS011;63400;50.650;6.832;2022-10-31T08:24:09;10.82;;;4.07;;
74851;SDS011;63400;50.650;6.832;2022-10-31T08:26:35;9.27;;;4.10;;
74851;SDS011;63400;50.650;6.832;2022-10-31T08:29:00;13.50;;;5.32;;
74851;SDS011;63400;50.650;6.832;2022-10-31T08:31:26;12.82;;;4.55;;
74851;SDS011;63400;50.650;6.832;2022-10-31T08:33:52;12.38;;;4.35;;
74851;SDS011;63400;50.650;6.832;2022-10-31T08:36:18;12.23;;;4.72;;
74851;SDS011;63400;50.650;6.832;2022-10-31T08:38:44;14.45;;;4.68;;
74851;SDS011;63400;50.650;6.832;2022-10-31T08:41:11;14.65;;;4.90;;
74851;SDS011;63400;50.650;6.832;2022-10-31T08:43:37;11.77;;;4.22;;
74851;SDS011;63400;50.650;6.832;2022-10-31T08:46:02;13.10;;;4.63;;
74851;SDS011;63400;50.650;6.832;2022-10-31T08:48:28;13.88;;;5.15;;
74851;SDS011;63400;50.650;6.832;2022-10-31T08:50:56;15.30;;;4.97;;
74851;SDS011;63400;50.650;6.832;2022-10-31T08:53:23;15.05;;;4.90;;
74851;SDS011;63400;50.650;6.832;2022-10-31T08:55:48;15.80;;;5.13;;
74851;SDS011;63400;50.650;6.832;2022-10-31T08:58:15;13.95;;;4.82;;
74851;SDS011;63400;50.650;6.832;2022-10-31T09:00:45;14.98;;;5.10;;
74851;SDS011;63400;50.650;6.832;2022-10-31T09:03:15;13.93;;;4.85;;
74851;SDS011;63400;50.650;6.832;2022-10-31T09:05:45;9.38;;;3.58;;
74851;SDS011;63400;50.650;6.832;2022-10-31T09:08:11;10.50;;;4.57;;
74851;SDS011;63400;50.650;6.832;2022-10-31T09:10:37;9.55;;;4.43;;
74851;SDS011;63400;50.650;6.832;2022-10-31T09:13:07;13.27;;;4.75;;
74851;SDS011;63400;50.650;6.832;2022-10-31T09:15:37;11.95;;;4.60;;
74851;SDS011;63400;50.650;6.832;2022-10-31T09:18:07;10.75;;;4.22;;
74851;SDS011;63400;50.650;6.832;2022-10-31T09:20:34;11.93;;;4.35;;
74851;SDS011;63400;50.650;6.832;2022-10-31T09:23:01;10.85;;;4.38;;
74851;SDS011;63400;50.650;6.832;2022-10-31T09:25:28;9.77;;;4.00;;
74851;SDS011;63400;50.650;6.832;2022-10-31T09:27:58;10.50;;;4.18;;
74851;SDS011;63400;50.650;6.832;2022-10-31T09:30:24;8.75;;;4.07;;
74851;SDS011;63400;50.650;6.832;2022-10-31T09:33:00;12.68;;;4.20;;
74851;SDS011;63400;50.650;6.832;2022-10-31T09:35:27;11.88;;;4.35;;
74851;SDS011;63400;50.650;6.832;2022-10-31T09:38:00;9.95;;;4.25;;
74851;SDS011;63400;50.650;6.832;2022-10-31T09:40:34;12.10;;;4.32;;
74851;SDS011;63400;50.650;6.832;2022-10-31T09:43:14;9.48;;;3.90;;
74851;SDS011;63400;50.650;6.832;2022-10-31T09:46:22;12.10;;;4.50;;
74851;SDS011;63400;50.650;6.832;2022-10-31T09:51:48;8.88;;;3.30;;
74851;SDS011;63400;50.650;6.832;2022-10-31T09:54:21;6.75;;;3.35;;
74851;SDS011;63400;50.650;6.832;2022-10-31T09:56:53;8.82;;;3.33;;
74851;SDS011;63400;50.650;6.832;2022-10-31T09:59:40;8.68;;;3.45;;
74851;SDS011;63400;50.650;6.832;2022-10-31T10:07:21;8.40;;;3.70;;
74851;SDS011;63400;50.650;6.832;2022-10-31T10:09:58;7.47;;;2.65;;
74851;SDS011;63400;50.650;6.832;2022-10-31T10:12:36;8.68;;;3.20;;
74851;SDS011;63400;50.650;6.832;2022-10-31T10:23:39;12.10;;;3.72;;
74851;SDS011;63400;50.650;6.832;2022-10-31T10:26:13;12.05;;;3.75;;
74851;SDS011;63400;50.650;6.832;2022-10-31T10:28:43;6.80;;;3.22;;
74851;SDS011;63400;50.650;6.832;2022-10-31T10:31:16;9.75;;;5.10;;
74851;SDS011;63400;50.650;6.832;2022-10-31T10:36:26;7.75;;;3.30;;
74851;SDS011;63400;50.650;6.832;2022-10-31T10:39:02;9.10;;;3.58;;
74851;SDS011;63400;50.650;6.832;2022-10-31T10:41:31;10.25;;;3.63;;
74851;SDS011;63400;50.650;6.832;2022-10-31T10:43:58;9.57;;;3.38;;
74851;SDS011;63400;50.650;6.832;2022-10-31T10:50:02;8.65;;;3.58;;
74851;SDS011;63400;50.650;6.832;2022-10-31T10:52:26;10.13;;;3.05;;
74851;SDS011;63400;50.650;6.832;2022-10-31T10:54:59;7.30;;;3.60;;
74851;SDS011;63400;50.650;6.832;2022-10-31T11:00:20;8.60;;;3.83;;
74851;SDS011;63400;50.650;6.832;2022-10-31T11:03:15;10.00;;;3.78;;
74851;SDS011;63400;50.650;6.832;2022-10-31T11:08:33;7.32;;;3.13;;
74851;SDS011;63400;50.650;6.832;2022-10-31T11:14:06;5.30;;;2.63;;
74851;SDS011;63400;50.650;6.832;2022-10-31T11:16:39;7.13;;;2.95;;
74851;SDS011;63400;50.650;6.832;2022-10-31T11:21:41;8.63;;;2.45;;
74851;SDS011;63400;50.650;6.832;2022-10-31T11:26:39;8.32;;;2.85;;
74851;SDS011;63400;50.650;6.832;2022-10-31T11:29:11;8.20;;;2.35;;
74851;SDS011;63400;50.650;6.832;2022-10-31T11:31:39;8.85;;;2.42;;
74851;SDS011;63400;50.650;6.832;2022-10-31T11:34:06;8.57;;;2.53;;
74851;SDS011;63400;50.650;6.832;2022-10-31T11:36:43;6.78;;;2.20;;
74851;SDS011;63400;50.650;6.832;2022-10-31T11:39:19;5.47;;;2.42;;
74851;SDS011;63400;50.650;6.832;2022-10-31T11:41:47;5.72;;;2.95;;
74851;SDS011;63400;50.650;6.832;2022-10-31T11:44:18;7.70;;;2.63;;
74851;SDS011;63400;50.650;6.832;2022-10-31T11:47:00;6.22;;;2.83;;
74851;SDS011;63400;50.650;6.832;2022-10-31T11:49:35;7.07;;;2.35;;
74851;SDS011;63400;50.650;6.832;2022-10-31T11:52:14;11.85;;;2.70;;
74851;SDS011;63400;50.650;6.832;2022-10-31T11:59:53;8.48;;;2.47;;
74851;SDS011;63400;50.650;6.832;2022-10-31T12:04:47;6.15;;;2.45;;
74851;SDS011;63400;50.650;6.832;2022-10-31T12:07:30;6.43;;;2.38;;
74851;SDS011;63400;50.650;6.832;2022-10-31T12:09:55;6.15;;;2.20;;
74851;SDS011;63400;50.650;6.832;2022-10-31T12:17:52;6.93;;;2.83;;
74851;SDS011;63400;50.650;6.832;2022-10-31T12:26:38;6.53;;;2.22;;
74851;SDS011;63400;50.650;6.832;2022-10-31T12:37:30;6.95;;;1.98;;
74851;SDS011;63400;50.650;6.832;2022-10-31T12:45:50;5.88;;;2.40;;
74851;SDS011;63400;50.650;6.832;2022-10-31T12:56:35;4.97;;;2.08;;
74851;SDS011;63400;50.650;6.832;2022-10-31T12:59:16;5.13;;;2.20;;
74851;SDS011;63400;50.650;6.832;2022-10-31T13:01:55;8.48;;;1.90;;
74851;SDS011;63400;50.650;6.832;2022-10-31T13:16:10;6.72;;;1.48;;
74851;SDS011;63400;50.650;6.832;2022-10-31T13:18:42;6.80;;;2.20;;
74851;SDS011;63400;50.650;6.832;2022-10-31T13:21:12;4.78;;;1.75;;
74851;SDS011;63400;50.650;6.832;2022-10-31T13:23:43;5.60;;;1.77;;
74851;SDS011;63400;50.650;6.832;2022-10-31T13:26:10;4.80;;;1.77;;
74851;SDS011;63400;50.650;6.832;2022-10-31T13:28:46;8.40;;;1.95;;
74851;SDS011;63400;50.650;6.832;2022-10-31T13:31:24;6.75;;;1.83;;
74851;SDS011;63400;50.650;6.832;2022-10-31T13:33:53;4.32;;;1.40;;
74851;SDS011;63400;50.650;6.832;2022-10-31T13:39:23;6.70;;;1.88;;
74851;SDS011;63400;50.650;6.832;2022-10-31T13:41:55;6.50;;;1.70;;
74851;SDS011;63400;50.650;6.832;2022-10-31T13:44:27;8.07;;;2.47;;
74851;SDS011;63400;50.650;6.832;2022-10-31T13:46:54;6.05;;;1.70;;
74851;SDS011;63400;50.650;6.832;2022-10-31T13:57:30;6.20;;;1.80;;
74851;SDS011;63400;50.650;6.832;2022-10-31T14:00:00;4.93;;;1.70;;
74851;SDS011;63400;50.650;6.832;2022-10-31T14:02:33;6.43;;;1.95;;
74851;SDS011;63400;50.650;6.832;2022-10-31T14:05:04;6.90;;;1.60;;
74851;SDS011;63400;50.650;6.832;2022-10-31T14:07:31;6.05;;;1.40;;
74851;SDS011;63400;50.650;6.832;2022-10-31T14:10:19;5.82;;;1.98;;
74851;SDS011;63400;50.650;6.832;2022-10-31T14:12:46;7.43;;;2.28;;
74851;SDS011;63400;50.650;6.832;2022-10-31T14:22:39;10.10;;;1.75;;
74851;SDS011;63400;50.650;6.832;2022-10-31T14:27:50;8.00;;;2.00;;
74851;SDS011;63400;50.650;6.832;2022-10-31T14:30:18;5.68;;;1.83;;
74851;SDS011;63400;50.650;6.832;2022-10-31T14:32:53;5.00;;;1.70;;
74851;SDS011;63400;50.650;6.832;2022-10-31T14:35:31;6.38;;;1.90;;
74851;SDS011;63400;50.650;6.832;2022-10-31T14:38:21;4.70;;;1.92;;
74851;SDS011;63400;50.650;6.832;2022-10-31T14:51:28;6.30;;;1.73;;
74851;SDS011;63400;50.650;6.832;2022-10-31T14:54:00;5.20;;;1.50;;
74851;SDS011;63400;50.650;6.832;2022-10-31T14:56:26;6.70;;;1.50;;
74851;SDS011;63400;50.650;6.832;2022-10-31T14:58:55;8.25;;;1.98;;
74851;SDS011;63400;50.650;6.832;2022-10-31T15:01:27;4.72;;;1.83;;
74851;SDS011;63400;50.650;6.832;2022-10-31T15:03:57;8.32;;;1.75;;
74851;SDS011;63400;50.650;6.832;2022-10-31T15:06:27;5.50;;;1.83;;
74851;SDS011;63400;50.650;6.832;2022-10-31T15:08:56;6.50;;;2.05;;
74851;SDS011;63400;50.650;6.832;2022-10-31T15:11:23;6.53;;;1.77;;
74851;SDS011;63400;50.650;6.832;2022-10-31T15:13:51;7.45;;;2.03;;
74851;SDS011;63400;50.650;6.832;2022-10-31T15:18:51;7.32;;;1.60;;
74851;SDS011;63400;50.650;6.832;2022-10-31T15:21:19;8.38;;;2.28;;
74851;SDS011;63400;50.650;6.832;2022-10-31T15:23:45;7.40;;;1.92;;
74851;SDS011;63400;50.650;6.832;2022-10-31T15:26:15;8.85;;;2.65;;
74851;SDS011;63400;50.650;6.832;2022-10-31T15:28:43;5.30;;;2.10;;
74851;SDS011;63400;50.650;6.832;2022-10-31T15:31:15;6.40;;;2.17;;
74851;SDS011;63400;50.650;6.832;2022-10-31T15:33:42;7.40;;;1.42;;
74851;SDS011;63400;50.650;6.832;2022-10-31T15:36:19;8.23;;;2.72;;
74851;SDS011;63400;50.650;6.832;2022-10-31T15:38:48;8.30;;;2.00;;
74851;SDS011;63400;50.650;6.832;2022-10-31T15:41:22;7.60;;;2.30;;
74851;SDS011;63400;50.650;6.832;2022-10-31T15:43:55;5.20;;;2.10;;
74851;SDS011;63400;50.650;6.832;2022-10-31T15:46:25;7.43;;;2.55;;
74851;SDS011;63400;50.650;6.832;2022-10-31T15:48:52;7.15;;;1.58;;
74851;SDS011;63400;50.650;6.832;2022-10-31T15:51:24;6.82;;;2.10;;
74851;SDS011;63400;50.650;6.832;2022-10-31T15:53:51;4.38;;;1.40;;
74851;SDS011;63400;50.650;6.832;2022-10-31T15:56:25;5.43;;;1.98;;
74851;SDS011;63400;50.650;6.832;2022-10-31T15:58:56;4.30;;;1.83;;
74851;SDS011;63400;50.650;6.832;2022-10-31T16:01:24;4.38;;;1.63;;
74851;SDS011;63400;50.650;6.832;2022-10-31T16:03:58;4.97;;;1.92;;
74851;SDS011;63400;50.650;6.832;2022-10-31T16:06:33;5.05;;;1.95;;
74851;SDS011;63400;50.650;6.832;2022-10-31T16:08:59;6.68;;;1.90;;
74851;SDS011;63400;50.650;6.832;2022-10-31T16:16:39;5.60;;;1.88;;
74851;SDS011;63400;50.650;6.832;2022-10-31T16:19:18;6.05;;;1.50;;
74851;SDS011;63400;50.650;6.832;2022-10-31T16:21:51;5.85;;;1.88;;
74851;SDS011;63400;50.650;6.832;2022-10-31T16:24:20;6.32;;;2.03;;
74851;SDS011;63400;50.650;6.832;2022-10-31T16:26:51;5.93;;;1.75;;
74851;SDS011;63400;50.650;6.832;2022-10-31T16:29:44;6.47;;;1.70;;
74851;SDS011;63400;50.650;6.832;2022-10-31T16:34:58;5.05;;;1.42;;
74851;SDS011;63400;50.650;6.832;2022-10-31T16:37:24;4.75;;;1.42;;
74851;SDS011;63400;50.650;6.832;2022-10-31T16:39:49;4.80;;;1.35;;
74851;SDS011;63400;50.650;6.832;2022-10-31T16:42:15;6.30;;;1.70;;
74851;SDS011;63400;50.650;6.832;2022-10-31T16:44:47;8.20;;;1.60;;
74851;SDS011;63400;50.650;6.832;2022-10-31T16:47:14;4.85;;;1.45;;
74851;SDS011;63400;50.650;6.832;2022-10-31T16:49:41;5.43;;;1.42;;
74851;SDS011;63400;50.650;6.832;2022-10-31T16:52:07;6.75;;;1.40;;
74851;SDS011;63400;50.650;6.832;2022-10-31T16:54:33;7.25;;;2.13;;
74851;SDS011;63400;50.650;6.832;2022-10-31T16:56:59;8.23;;;1.98;;
74851;SDS011;63400;50.650;6.832;2022-10-31T16:59:24;5.20;;;2.00;;
74851;SDS011;63400;50.650;6.832;2022-10-31T17:01:51;4.97;;;1.85;;
74851;SDS011;63400;50.650;6.832;2022-10-31T17:04:17;5.60;;;2.45;;
74851;SDS011;63400;50.650;6.832;2022-10-31T17:06:43;8.70;;;1.65;;
74851;SDS011;63400;50.650;6.832;2022-10-31T17:09:08;5.22;;;1.00;;
74851;SDS011;63400;50.650;6.832;2022-10-31T17:11:34;5.75;;;1.70;;
74851;SDS011;63400;50.650;6.832;2022-10-31T17:14:00;9.98;;;2.17;;
74851;SDS011;63400;50.650;6.832;2022-10-31T17:16:26;6.05;;;1.73;;
74851;SDS011;63400;50.650;6.832;2022-10-31T17:18:51;6.38;;;1.88;;
74851;SDS011;63400;50.650;6.832;2022-10-31T17:21:20;5.15;;;1.45;;
74851;SDS011;63400;50.650;6.832;2022-10-31T17:23:50;5.07;;;2.35;;
74851;SDS011;63400;50.650;6.832;2022-10-31T17:26:16;6.53;;;2.63;;
74851;SDS011;63400;50.650;6.832;2022-10-31T17:28:42;8.25;;;2.40;;
74851;SDS011;63400;50.650;6.832;2022-10-31T17:31:41;7.07;;;2.47;;
74851;SDS011;63400;50.650;6.832;2022-10-31T17:34:03;6.60;;;2.33;;
74851;SDS011;63400;50.650;6.832;2022-10-31T17:36:30;3.95;;;1.98;;
74851;SDS011;63400;50.650;6.832;2022-10-31T17:38:56;6.95;;;2.30;;
74851;SDS011;63400;50.650;6.832;2022-10-31T17:41:22;5.68;;;2.10;;
74851;SDS011;63400;50.650;6.832;2022-10-31T17:43:47;5.97;;;1.73;;
74851;SDS011;63400;50.650;6.832;2022-10-31T17:46:13;6.57;;;2.42;;
74851;SDS011;63400;50.650;6.832;2022-10-31T17:48:38;6.38;;;2.35;;
74851;SDS011;63400;50.650;6.832;2022-10-31T17:51:04;4.50;;;2.20;;
74851;SDS011;63400;50.650;6.832;2022-10-31T17:53:31;8.20;;;1.95;;